Seymour Johnson Air Force Base
KGSB : rendu visible

Aérodrome :











RETROUVEZ-NOUS SUR...

 
LOGIN :

S'inscrire | Disclaimer

   EN    FR    IT 

 









Légende :    VFR   VFR Marginal   IFR   IFR Intensif   IFR Très Intensif
Visi : 
Plafond : 
>= 8 km
>= 3000ft
5 à 8 km
1000 à 3000 ft
1500m à 5 km
500 à 1000 ft
800 à 1500m
200 à 500 ft
< 800m
< 200 ft
Symboles :   Orages  Brouillard  Fortes neiges  Fortes précipitations  Vent > 20 kt






- Altitude de l'aérodrome : 109 ft


KGSB - Seymour Johnson Air Force Base

DERNIER METAR :
  • 281256Z AUTO 00000KT 10SM OVC055 05/03 A2995 RMK AO2 SLP146 T00480025 $

METARs EXPIRÉS :
  • 281156Z AUTO 30003KT 10SM OVC060 05/02 A2993 RMK AO2 SLP139 70005 T00450022 10066 20039 52018 $
  • 281056Z AUTO 35004KT 10SM OVC055 05/03 A2991 RMK AO2 SLP132 T00460026 $

TAF AMD TAF KGSB
Valide du 28 à 12h jusqu'au 29 à 11h UTC


281200Z 2812/2911 32006KT 9999 BKN050 QNH2991INS TX11/2821Z TN05/2812Z



MET'MAP, la Météo Aéronautique d'un coup d'oeil ! - Copyright ORBIFLY Décembre 2007 - Disclaimer

ORBIFLY MET'MAP TEAM :

Programmation & Développement : Alexandra Zaïnal
Sur une idée originale de : Baudouin d'Aumeries
Assistance à la programmation : Marc-Olivier Méhu
Soutien technique & logistique : Manuel Goepfert

Contact : metmap@orbifly.com




SOURCES & CREDITS :

   NOAA       Earth
Advisory